sensor_id;sensor_type;location;lat;lon;timestamp;temperature;humidity
947;DHT22;460;48.734;9.152;2023-09-12T00:00:44;19.20;99.90
947;DHT22;460;48.734;9.152;2023-09-12T00:03:12;19.20;99.90
947;DHT22;460;48.734;9.152;2023-09-12T00:05:39;19.00;99.90
947;DHT22;460;48.734;9.152;2023-09-12T00:08:06;19.00;99.90
947;DHT22;460;48.734;9.152;2023-09-12T00:10:32;18.90;99.90
947;DHT22;460;48.734;9.152;2023-09-12T00:12:59;18.80;99.90
947;DHT22;460;48.734;9.152;2023-09-12T00:15:27;18.80;99.90
947;DHT22;460;48.734;9.152;2023-09-12T00:17:54;18.90;99.90
947;DHT22;460;48.734;9.152;2023-09-12T00:20:22;18.90;99.90
947;DHT22;460;48.734;9.152;2023-09-12T00:22:49;18.90;99.90
947;DHT22;460;48.734;9.152;2023-09-12T00:25:16;18.90;99.90
947;DHT22;460;48.734;9.152;2023-09-12T00:27:43;18.90;99.90
947;DHT22;460;48.734;9.152;2023-09-12T00:30:11;18.90;99.90
947;DHT22;460;48.734;9.152;2023-09-12T00:32:38;18.90;99.90
947;DHT22;460;48.734;9.152;2023-09-12T00:35:05;19.00;99.90
947;DHT22;460;48.734;9.152;2023-09-12T00:37:34;19.00;99.90
947;DHT22;460;48.734;9.152;2023-09-12T00:40:00;19.10;99.90
947;DHT22;460;48.734;9.152;2023-09-12T00:42:28;19.10;99.90
947;DHT22;460;48.734;9.152;2023-09-12T00:44:54;19.10;99.90
947;DHT22;460;48.734;9.152;2023-09-12T00:47:22;19.00;99.90
947;DHT22;460;48.734;9.152;2023-09-12T00:49:50;19.00;99.90
947;DHT22;460;48.734;9.152;2023-09-12T00:52:20;19.00;99.90
947;DHT22;460;48.734;9.152;2023-09-12T00:54:49;19.10;99.90
947;DHT22;460;48.734;9.152;2023-09-12T00:57:16;19.10;99.90
947;DHT22;460;48.734;9.152;2023-09-12T00:59:43;19.00;99.90
947;DHT22;460;48.734;9.152;2023-09-12T01:02:10;19.00;99.90
947;DHT22;460;48.734;9.152;2023-09-12T01:04:37;18.90;99.90
947;DHT22;460;48.734;9.152;2023-09-12T01:07:04;18.90;99.90
947;DHT22;460;48.734;9.152;2023-09-12T01:09:32;18.80;99.90
947;DHT22;460;48.734;9.152;2023-09-12T01:12:00;18.80;99.90
947;DHT22;460;48.734;9.152;2023-09-12T01:14:29;18.60;99.90
947;DHT22;460;48.734;9.152;2023-09-12T01:16:56;18.50;99.90
947;DHT22;460;48.734;9.152;2023-09-12T01:19:24;18.50;99.90
947;DHT22;460;48.734;9.152;2023-09-12T01:22:08;18.40;99.90
947;DHT22;460;48.734;9.152;2023-09-12T01:25:05;18.30;99.90
947;DHT22;460;48.734;9.152;2023-09-12T01:27:39;18.30;99.90
947;DHT22;460;48.734;9.152;2023-09-12T01:30:10;18.30;99.90
947;DHT22;460;48.734;9.152;2023-09-12T01:32:39;18.30;99.90
947;DHT22;460;48.734;9.152;2023-09-12T01:35:08;18.20;99.90
947;DHT22;460;48.734;9.152;2023-09-12T01:37:36;18.30;99.90
947;DHT22;460;48.734;9.152;2023-09-12T01:40:05;18.40;99.90
947;DHT22;460;48.734;9.152;2023-09-12T01:56:16;18.40;99.90
947;DHT22;460;48.734;9.152;2023-09-12T01:58:45;18.40;99.90
947;DHT22;460;48.734;9.152;2023-09-12T02:01:14;18.40;99.90
947;DHT22;460;48.734;9.152;2023-09-12T02:03:42;18.50;99.90
947;DHT22;460;48.734;9.152;2023-09-12T02:06:09;18.50;99.90
947;DHT22;460;48.734;9.152;2023-09-12T02:08:35;18.50;99.90
947;DHT22;460;48.734;9.152;2023-09-12T02:11:02;18.50;99.90
947;DHT22;460;48.734;9.152;2023-09-12T02:13:30;18.50;99.90
947;DHT22;460;48.734;9.152;2023-09-12T02:16:01;18.50;99.90
947;DHT22;460;48.734;9.152;2023-09-12T02:18:29;18.60;99.90
947;DHT22;460;48.734;9.152;2023-09-12T02:20:58;18.60;99.90
947;DHT22;460;48.734;9.152;2023-09-12T02:23:25;18.70;99.90
947;DHT22;460;48.734;9.152;2023-09-12T02:25:53;18.80;99.90
947;DHT22;460;48.734;9.152;2023-09-12T02:28:22;18.60;99.90
947;DHT22;460;48.734;9.152;2023-09-12T02:30:52;18.60;99.90
947;DHT22;460;48.734;9.152;2023-09-12T02:33:20;18.60;99.90
947;DHT22;460;48.734;9.152;2023-09-12T02:35:48;18.50;99.90
947;DHT22;460;48.734;9.152;2023-09-12T02:38:17;18.50;99.90
947;DHT22;460;48.734;9.152;2023-09-12T02:40:44;18.50;99.90
947;DHT22;460;48.734;9.152;2023-09-12T02:43:12;18.50;99.90
947;DHT22;460;48.734;9.152;2023-09-12T02:45:39;18.40;99.90
947;DHT22;460;48.734;9.152;2023-09-12T02:48:08;18.40;99.90
947;DHT22;460;48.734;9.152;2023-09-12T02:50:36;18.40;99.90
947;DHT22;460;48.734;9.152;2023-09-12T02:53:04;18.30;99.90
947;DHT22;460;48.734;9.152;2023-09-12T02:55:32;18.30;99.90
947;DHT22;460;48.734;9.152;2023-09-12T02:57:59;18.30;99.90
947;DHT22;460;48.734;9.152;2023-09-12T03:00:25;18.40;99.90
947;DHT22;460;48.734;9.152;2023-09-12T03:02:52;18.40;99.90
947;DHT22;460;48.734;9.152;2023-09-12T03:05:20;18.30;99.90
947;DHT22;460;48.734;9.152;2023-09-12T03:07:47;18.30;99.90
947;DHT22;460;48.734;9.152;2023-09-12T03:10:14;18.20;99.90
947;DHT22;460;48.734;9.152;2023-09-12T03:12:41;18.20;99.90
947;DHT22;460;48.734;9.152;2023-09-12T03:15:09;18.20;99.90
947;DHT22;460;48.734;9.152;2023-09-12T03:17:36;18.20;99.90
947;DHT22;460;48.734;9.152;2023-09-12T03:20:03;18.20;99.90
947;DHT22;460;48.734;9.152;2023-09-12T03:22:33;18.20;99.90
947;DHT22;460;48.734;9.152;2023-09-12T03:25:03;18.10;99.90
947;DHT22;460;48.734;9.152;2023-09-12T03:27:31;18.20;99.90
947;DHT22;460;48.734;9.152;2023-09-12T03:29:58;18.20;99.90
947;DHT22;460;48.734;9.152;2023-09-12T03:32:25;18.20;99.90
947;DHT22;460;48.734;9.152;2023-09-12T03:34:52;18.10;99.90
947;DHT22;460;48.734;9.152;2023-09-12T03:37:18;18.00;99.90
947;DHT22;460;48.734;9.152;2023-09-12T03:39:48;18.00;99.90
947;DHT22;460;48.734;9.152;2023-09-12T03:42:15;18.00;99.90
947;DHT22;460;48.734;9.152;2023-09-12T03:44:42;18.00;99.90
947;DHT22;460;48.734;9.152;2023-09-12T03:47:08;18.10;99.90
947;DHT22;460;48.734;9.152;2023-09-12T03:49:35;18.20;99.90
947;DHT22;460;48.734;9.152;2023-09-12T03:52:02;18.30;99.90
947;DHT22;460;48.734;9.152;2023-09-12T03:54:29;18.20;99.90
947;DHT22;460;48.734;9.152;2023-09-12T03:56:57;18.10;99.90
947;DHT22;460;48.734;9.152;2023-09-12T03:59:24;18.10;99.90
947;DHT22;460;48.734;9.152;2023-09-12T04:01:51;18.10;99.90
947;DHT22;460;48.734;9.152;2023-09-12T04:04:18;17.90;99.90
947;DHT22;460;48.734;9.152;2023-09-12T04:06:44;17.90;99.90
947;DHT22;460;48.734;9.152;2023-09-12T04:09:12;18.00;99.90
947;DHT22;460;48.734;9.152;2023-09-12T04:11:39;18.00;99.90
947;DHT22;460;48.734;9.152;2023-09-12T04:14:07;18.00;99.90
947;DHT22;460;48.734;9.152;2023-09-12T04:16:33;17.90;99.90
947;DHT22;460;48.734;9.152;2023-09-12T04:19:00;17.90;99.90
947;DHT22;460;48.734;9.152;2023-09-12T04:21:27;17.90;99.90
947;DHT22;460;48.734;9.152;2023-09-12T04:23:54;17.90;99.90
947;DHT22;460;48.734;9.152;2023-09-12T04:26:20;18.00;99.90
947;DHT22;460;48.734;9.152;2023-09-12T04:28:47;18.00;99.90
947;DHT22;460;48.734;9.152;2023-09-12T04:31:16;18.00;99.90
947;DHT22;460;48.734;9.152;2023-09-12T04:33:42;18.00;99.90
947;DHT22;460;48.734;9.152;2023-09-12T04:36:09;17.90;99.90
947;DHT22;460;48.734;9.152;2023-09-12T04:38:36;17.90;99.90
947;DHT22;460;48.734;9.152;2023-09-12T04:41:03;17.90;99.90
947;DHT22;460;48.734;9.152;2023-09-12T04:43:32;17.90;99.90
947;DHT22;460;48.734;9.152;2023-09-12T04:45:59;17.90;99.90
947;DHT22;460;48.734;9.152;2023-09-12T04:48:27;17.90;99.90
947;DHT22;460;48.734;9.152;2023-09-12T04:50:55;17.90;99.90
947;DHT22;460;48.734;9.152;2023-09-12T04:53:22;18.00;99.90
947;DHT22;460;48.734;9.152;2023-09-12T04:55:49;18.00;99.90
947;DHT22;460;48.734;9.152;2023-09-12T04:58:18;17.90;99.90
947;DHT22;460;48.734;9.152;2023-09-12T05:00:45;18.00;99.90
947;DHT22;460;48.734;9.152;2023-09-12T05:03:12;17.90;99.90
947;DHT22;460;48.734;9.152;2023-09-12T05:05:40;17.90;99.90
947;DHT22;460;48.734;9.152;2023-09-12T05:08:07;18.00;99.90
947;DHT22;460;48.734;9.152;2023-09-12T05:10:35;18.00;99.90
947;DHT22;460;48.734;9.152;2023-09-12T05:13:02;18.10;99.90
947;DHT22;460;48.734;9.152;2023-09-12T05:15:28;18.10;99.90
947;DHT22;460;48.734;9.152;2023-09-12T05:17:55;18.20;99.90
947;DHT22;460;48.734;9.152;2023-09-12T05:20:22;18.20;99.90
947;DHT22;460;48.734;9.152;2023-09-12T05:22:50;18.30;99.90
947;DHT22;460;48.734;9.152;2023-09-12T05:25:17;18.40;99.90
947;DHT22;460;48.734;9.152;2023-09-12T05:27:44;18.40;99.90
947;DHT22;460;48.734;9.152;2023-09-12T05:30:11;18.30;99.90
947;DHT22;460;48.734;9.152;2023-09-12T05:32:38;18.40;99.90
947;DHT22;460;48.734;9.152;2023-09-12T05:35:05;18.30;99.90
947;DHT22;460;48.734;9.152;2023-09-12T05:37:32;18.40;99.90
947;DHT22;460;48.734;9.152;2023-09-12T05:40:00;18.50;99.90
947;DHT22;460;48.734;9.152;2023-09-12T05:42:27;18.50;99.90
947;DHT22;460;48.734;9.152;2023-09-12T05:44:54;18.60;99.90
947;DHT22;460;48.734;9.152;2023-09-12T05:47:22;18.70;99.90
947;DHT22;460;48.734;9.152;2023-09-12T05:49:50;18.70;99.90
947;DHT22;460;48.734;9.152;2023-09-12T05:52:17;18.80;99.90
947;DHT22;460;48.734;9.152;2023-09-12T05:54:52;18.90;99.90
947;DHT22;460;48.734;9.152;2023-09-12T05:57:21;18.90;99.90
947;DHT22;460;48.734;9.152;2023-09-12T05:59:49;19.00;99.90
947;DHT22;460;48.734;9.152;2023-09-12T06:02:16;19.00;99.90
947;DHT22;460;48.734;9.152;2023-09-12T06:04:43;19.20;99.90
947;DHT22;460;48.734;9.152;2023-09-12T06:07:10;19.20;99.90
947;DHT22;460;48.734;9.152;2023-09-12T06:09:36;19.30;99.90
947;DHT22;460;48.734;9.152;2023-09-12T06:12:04;19.40;99.90
947;DHT22;460;48.734;9.152;2023-09-12T06:14:33;19.40;99.90
947;DHT22;460;48.734;9.152;2023-09-12T06:16:59;19.50;99.90
947;DHT22;460;48.734;9.152;2023-09-12T06:19:26;19.50;99.90
947;DHT22;460;48.734;9.152;2023-09-12T06:21:53;19.60;99.90
947;DHT22;460;48.734;9.152;2023-09-12T06:24:21;19.60;99.90
947;DHT22;460;48.734;9.152;2023-09-12T06:26:49;19.70;99.90
947;DHT22;460;48.734;9.152;2023-09-12T06:29:16;19.80;99.90
947;DHT22;460;48.734;9.152;2023-09-12T06:31:44;19.90;99.90
947;DHT22;460;48.734;9.152;2023-09-12T06:34:11;19.90;99.90
947;DHT22;460;48.734;9.152;2023-09-12T06:36:38;19.90;99.90
947;DHT22;460;48.734;9.152;2023-09-12T06:39:06;20.00;99.90
947;DHT22;460;48.734;9.152;2023-09-12T06:41:34;20.10;99.90
947;DHT22;460;48.734;9.152;2023-09-12T06:44:01;20.10;99.90
947;DHT22;460;48.734;9.152;2023-09-12T06:46:29;20.20;99.90
947;DHT22;460;48.734;9.152;2023-09-12T06:48:57;20.20;99.90
947;DHT22;460;48.734;9.152;2023-09-12T06:51:24;20.30;99.90
947;DHT22;460;48.734;9.152;2023-09-12T06:53:52;20.20;99.90
947;DHT22;460;48.734;9.152;2023-09-12T06:56:19;20.10;99.90
947;DHT22;460;48.734;9.152;2023-09-12T06:58:46;20.20;99.90
947;DHT22;460;48.734;9.152;2023-09-12T07:01:13;20.20;99.90
947;DHT22;460;48.734;9.152;2023-09-12T07:03:40;20.20;99.90
947;DHT22;460;48.734;9.152;2023-09-12T07:06:08;20.30;99.90
947;DHT22;460;48.734;9.152;2023-09-12T07:08:36;20.40;99.90
947;DHT22;460;48.734;9.152;2023-09-12T07:11:04;20.40;99.90
947;DHT22;460;48.734;9.152;2023-09-12T07:13:32;20.50;99.90
947;DHT22;460;48.734;9.152;2023-09-12T07:15:59;20.50;99.90
947;DHT22;460;48.734;9.152;2023-09-12T07:18:29;20.60;99.90
947;DHT22;460;48.734;9.152;2023-09-12T07:20:59;20.60;99.90
947;DHT22;460;48.734;9.152;2023-09-12T07:23:27;20.70;99.90
947;DHT22;460;48.734;9.152;2023-09-12T07:25:54;20.70;99.90
947;DHT22;460;48.734;9.152;2023-09-12T07:28:23;20.70;99.90
947;DHT22;460;48.734;9.152;2023-09-12T07:30:49;20.80;99.90
947;DHT22;460;48.734;9.152;2023-09-12T07:33:16;20.80;99.90
947;DHT22;460;48.734;9.152;2023-09-12T07:35:43;20.80;99.90
947;DHT22;460;48.734;9.152;2023-09-12T07:38:10;20.90;99.90
947;DHT22;460;48.734;9.152;2023-09-12T07:40:38;21.20;99.90
947;DHT22;460;48.734;9.152;2023-09-12T07:43:05;21.40;99.80
947;DHT22;460;48.734;9.152;2023-09-12T07:45:32;21.60;99.50
947;DHT22;460;48.734;9.152;2023-09-12T07:48:03;21.70;99.90
947;DHT22;460;48.734;9.152;2023-09-12T07:50:30;21.90;99.10
947;DHT22;460;48.734;9.152;2023-09-12T07:52:57;22.10;99.50
947;DHT22;460;48.734;9.152;2023-09-12T07:55:40;22.20;97.90
947;DHT22;460;48.734;9.152;2023-09-12T07:58:16;22.30;97.50
947;DHT22;460;48.734;9.152;2023-09-12T08:00:44;22.50;97.50
947;DHT22;460;48.734;9.152;2023-09-12T08:03:25;22.60;98.10
947;DHT22;460;48.734;9.152;2023-09-12T08:05:56;22.90;96.90
947;DHT22;460;48.734;9.152;2023-09-12T08:08:25;23.00;97.30
947;DHT22;460;48.734;9.152;2023-09-12T08:10:53;23.10;96.80
947;DHT22;460;48.734;9.152;2023-09-12T08:13:23;23.10;97.00
947;DHT22;460;48.734;9.152;2023-09-12T08:15:49;23.20;97.30
947;DHT22;460;48.734;9.152;2023-09-12T08:18:18;23.20;96.70
947;DHT22;460;48.734;9.152;2023-09-12T08:20:48;23.20;96.70
947;DHT22;460;48.734;9.152;2023-09-12T08:23:15;23.20;97.00
947;DHT22;460;48.734;9.152;2023-09-12T08:25:44;23.20;97.10
947;DHT22;460;48.734;9.152;2023-09-12T08:28:12;23.20;97.10
947;DHT22;460;48.734;9.152;2023-09-12T08:30:44;23.20;96.90
947;DHT22;460;48.734;9.152;2023-09-12T08:33:11;23.10;97.80
947;DHT22;460;48.734;9.152;2023-09-12T08:35:38;23.10;98.30
947;DHT22;460;48.734;9.152;2023-09-12T08:38:05;23.10;98.30
947;DHT22;460;48.734;9.152;2023-09-12T08:40:32;23.30;96.90
947;DHT22;460;48.734;9.152;2023-09-12T08:43:03;23.60;96.30
947;DHT22;460;48.734;9.152;2023-09-12T08:45:33;23.90;96.00
947;DHT22;460;48.734;9.152;2023-09-12T08:48:05;24.10;95.60
947;DHT22;460;48.734;9.152;2023-09-12T08:50:33;24.30;95.60
947;DHT22;460;48.734;9.152;2023-09-12T08:53:00;24.40;95.90
947;DHT22;460;48.734;9.152;2023-09-12T08:55:30;24.60;95.40
947;DHT22;460;48.734;9.152;2023-09-12T08:58:03;24.60;95.10
947;DHT22;460;48.734;9.152;2023-09-12T09:00:32;24.70;94.70
947;DHT22;460;48.734;9.152;2023-09-12T09:03:01;24.70;94.70
947;DHT22;460;48.734;9.152;2023-09-12T09:05:29;24.90;95.00
947;DHT22;460;48.734;9.152;2023-09-12T09:07:59;25.00;94.90
947;DHT22;460;48.734;9.152;2023-09-12T09:10:30;25.00;94.60
947;DHT22;460;48.734;9.152;2023-09-12T09:13:00;25.20;94.50
947;DHT22;460;48.734;9.152;2023-09-12T09:15:29;25.20;93.40
947;DHT22;460;48.734;9.152;2023-09-12T09:18:02;25.00;94.50
947;DHT22;460;48.734;9.152;2023-09-12T09:20:33;25.20;94.70
947;DHT22;460;48.734;9.152;2023-09-12T09:23:02;25.30;94.20
947;DHT22;460;48.734;9.152;2023-09-12T09:25:33;25.50;94.30
947;DHT22;460;48.734;9.152;2023-09-12T09:28:03;25.60;93.40
947;DHT22;460;48.734;9.152;2023-09-12T09:30:43;25.60;93.00
947;DHT22;460;48.734;9.152;2023-09-12T09:33:15;25.70;92.90
947;DHT22;460;48.734;9.152;2023-09-12T09:35:47;25.60;91.90
947;DHT22;460;48.734;9.152;2023-09-12T09:38:19;25.80;92.00
947;DHT22;460;48.734;9.152;2023-09-12T09:40:49;25.90;91.60
947;DHT22;460;48.734;9.152;2023-09-12T09:43:19;26.10;90.60
947;DHT22;460;48.734;9.152;2023-09-12T09:45:47;26.20;91.10
947;DHT22;460;48.734;9.152;2023-09-12T09:48:23;26.30;91.30
947;DHT22;460;48.734;9.152;2023-09-12T09:50:53;26.40;90.80
947;DHT22;460;48.734;9.152;2023-09-12T09:53:23;26.50;90.30
947;DHT22;460;48.734;9.152;2023-09-12T09:55:52;26.60;90.50
947;DHT22;460;48.734;9.152;2023-09-12T09:58:23;26.80;89.90
947;DHT22;460;48.734;9.152;2023-09-12T10:00:50;26.80;90.00
947;DHT22;460;48.734;9.152;2023-09-12T10:03:19;27.00;89.40
947;DHT22;460;48.734;9.152;2023-09-12T10:05:51;27.10;91.00
947;DHT22;460;48.734;9.152;2023-09-12T10:08:20;27.10;88.90
947;DHT22;460;48.734;9.152;2023-09-12T10:10:48;27.30;89.70
947;DHT22;460;48.734;9.152;2023-09-12T10:13:15;27.40;89.70
947;DHT22;460;48.734;9.152;2023-09-12T10:15:43;27.50;88.50
947;DHT22;460;48.734;9.152;2023-09-12T10:18:15;27.50;88.60
947;DHT22;460;48.734;9.152;2023-09-12T10:20:49;27.60;88.50
947;DHT22;460;48.734;9.152;2023-09-12T10:23:20;27.70;86.90
947;DHT22;460;48.734;9.152;2023-09-12T10:25:49;27.60;85.30
947;DHT22;460;48.734;9.152;2023-09-12T10:28:17;27.70;86.60
947;DHT22;460;48.734;9.152;2023-09-12T10:30:45;27.70;83.60
947;DHT22;460;48.734;9.152;2023-09-12T10:33:13;27.70;83.70
947;DHT22;460;48.734;9.152;2023-09-12T10:35:41;27.80;84.50
947;DHT22;460;48.734;9.152;2023-09-12T10:38:13;27.90;84.90
947;DHT22;460;48.734;9.152;2023-09-12T10:40:43;28.00;81.10
947;DHT22;460;48.734;9.152;2023-09-12T10:43:11;28.00;80.10
947;DHT22;460;48.734;9.152;2023-09-12T10:45:39;28.10;82.10
947;DHT22;460;48.734;9.152;2023-09-12T10:48:12;28.20;82.00
947;DHT22;460;48.734;9.152;2023-09-12T10:50:42;28.30;81.40
947;DHT22;460;48.734;9.152;2023-09-12T10:53:12;28.30;81.30
947;DHT22;460;48.734;9.152;2023-09-12T10:55:40;28.40;80.20
947;DHT22;460;48.734;9.152;2023-09-12T10:58:09;28.40;80.30
947;DHT22;460;48.734;9.152;2023-09-12T11:00:36;28.60;80.60
947;DHT22;460;48.734;9.152;2023-09-12T11:03:37;28.70;77.10
947;DHT22;460;48.734;9.152;2023-09-12T11:06:19;28.70;77.50
947;DHT22;460;48.734;9.152;2023-09-12T11:09:20;28.80;77.00
947;DHT22;460;48.734;9.152;2023-09-12T11:11:55;28.80;76.10
947;DHT22;460;48.734;9.152;2023-09-12T11:14:22;28.90;75.80
947;DHT22;460;48.734;9.152;2023-09-12T11:17:21;28.90;75.90
947;DHT22;460;48.734;9.152;2023-09-12T11:19:50;29.00;75.30
947;DHT22;460;48.734;9.152;2023-09-12T11:22:23;29.00;75.20
947;DHT22;460;48.734;9.152;2023-09-12T11:24:54;29.00;74.10
947;DHT22;460;48.734;9.152;2023-09-12T11:27:22;29.10;72.70
947;DHT22;460;48.734;9.152;2023-09-12T11:29:49;29.10;73.40
947;DHT22;460;48.734;9.152;2023-09-12T11:32:30;28.80;74.50
947;DHT22;460;48.734;9.152;2023-09-12T11:34:57;28.90;75.60
947;DHT22;460;48.734;9.152;2023-09-12T11:37:26;29.00;75.20
947;DHT22;460;48.734;9.152;2023-09-12T11:39:56;29.00;74.10
947;DHT22;460;48.734;9.152;2023-09-12T11:42:24;29.00;75.40
947;DHT22;460;48.734;9.152;2023-09-12T11:44:52;29.10;73.90
947;DHT22;460;48.734;9.152;2023-09-12T11:47:19;29.30;71.30
947;DHT22;460;48.734;9.152;2023-09-12T11:49:46;29.20;72.10
947;DHT22;460;48.734;9.152;2023-09-12T11:52:14;29.20;69.90
947;DHT22;460;48.734;9.152;2023-09-12T11:54:42;29.20;69.60
947;DHT22;460;48.734;9.152;2023-09-12T11:57:12;29.30;72.30
947;DHT22;460;48.734;9.152;2023-09-12T11:59:41;29.30;72.80
947;DHT22;460;48.734;9.152;2023-09-12T12:02:09;29.30;71.00
947;DHT22;460;48.734;9.152;2023-09-12T12:04:37;29.30;72.30
947;DHT22;460;48.734;9.152;2023-09-12T12:07:04;29.40;71.20
947;DHT22;460;48.734;9.152;2023-09-12T12:09:32;29.30;68.90
947;DHT22;460;48.734;9.152;2023-09-12T12:12:04;29.40;71.80
947;DHT22;460;48.734;9.152;2023-09-12T12:14:34;29.50;69.50
947;DHT22;460;48.734;9.152;2023-09-12T12:17:06;29.60;69.80
947;DHT22;460;48.734;9.152;2023-09-12T12:19:34;29.70;68.70
947;DHT22;460;48.734;9.152;2023-09-12T12:22:03;29.80;67.00
947;DHT22;460;48.734;9.152;2023-09-12T12:24:39;29.80;68.00
947;DHT22;460;48.734;9.152;2023-09-12T12:27:06;29.90;68.30
947;DHT22;460;48.734;9.152;2023-09-12T12:29:37;30.10;66.30
947;DHT22;460;48.734;9.152;2023-09-12T12:32:20;30.10;65.40
947;DHT22;460;48.734;9.152;2023-09-12T12:35:03;30.10;64.20
947;DHT22;460;48.734;9.152;2023-09-12T12:37:31;30.10;63.10
947;DHT22;460;48.734;9.152;2023-09-12T12:39:58;30.10;62.70
947;DHT22;460;48.734;9.152;2023-09-12T12:42:32;30.00;64.30
947;DHT22;460;48.734;9.152;2023-09-12T12:45:27;30.00;63.00
947;DHT22;460;48.734;9.152;2023-09-12T12:48:02;30.10;63.50
947;DHT22;460;48.734;9.152;2023-09-12T12:50:37;30.10;63.00
947;DHT22;460;48.734;9.152;2023-09-12T12:53:04;30.10;62.90
947;DHT22;460;48.734;9.152;2023-09-12T12:55:31;30.30;62.10
947;DHT22;460;48.734;9.152;2023-09-12T12:58:00;30.40;63.70
947;DHT22;460;48.734;9.152;2023-09-12T13:00:32;30.40;64.20
947;DHT22;460;48.734;9.152;2023-09-12T13:02:59;30.40;64.50
947;DHT22;460;48.734;9.152;2023-09-12T13:05:27;30.50;63.40
947;DHT22;460;48.734;9.152;2023-09-12T13:07:55;30.60;64.30
947;DHT22;460;48.734;9.152;2023-09-12T13:10:27;30.60;65.20
947;DHT22;460;48.734;9.152;2023-09-12T13:12:56;30.60;67.00
947;DHT22;460;48.734;9.152;2023-09-12T13:15:22;30.50;64.90
947;DHT22;460;48.734;9.152;2023-09-12T13:17:51;30.60;64.60
947;DHT22;460;48.734;9.152;2023-09-12T13:20:17;30.80;64.80
947;DHT22;460;48.734;9.152;2023-09-12T13:22:44;30.60;64.30
947;DHT22;460;48.734;9.152;2023-09-12T13:25:11;30.30;63.30
947;DHT22;460;48.734;9.152;2023-09-12T13:27:38;30.20;64.60
947;DHT22;460;48.734;9.152;2023-09-12T13:30:06;30.00;63.10
947;DHT22;460;48.734;9.152;2023-09-12T13:32:33;30.10;64.80
947;DHT22;460;48.734;9.152;2023-09-12T13:35:01;30.20;63.40
947;DHT22;460;48.734;9.152;2023-09-12T13:37:28;30.00;64.10
947;DHT22;460;48.734;9.152;2023-09-12T13:39:56;29.80;64.90
947;DHT22;460;48.734;9.152;2023-09-12T13:42:24;29.50;66.60
947;DHT22;460;48.734;9.152;2023-09-12T13:44:56;29.50;65.30
947;DHT22;460;48.734;9.152;2023-09-12T13:47:23;29.60;66.40
947;DHT22;460;48.734;9.152;2023-09-12T13:49:51;29.90;64.60
947;DHT22;460;48.734;9.152;2023-09-12T13:52:20;30.00;64.30
947;DHT22;460;48.734;9.152;2023-09-12T13:54:46;29.80;65.60
947;DHT22;460;48.734;9.152;2023-09-12T13:57:15;29.80;65.90
947;DHT22;460;48.734;9.152;2023-09-12T13:59:42;30.60;68.00
947;DHT22;460;48.734;9.152;2023-09-12T14:02:08;31.80;61.90
947;DHT22;460;48.734;9.152;2023-09-12T14:04:35;32.70;60.60
947;DHT22;460;48.734;9.152;2023-09-12T14:07:02;33.00;60.30
947;DHT22;460;48.734;9.152;2023-09-12T14:09:31;33.60;59.20
947;DHT22;460;48.734;9.152;2023-09-12T14:11:57;34.50;58.00
947;DHT22;460;48.734;9.152;2023-09-12T14:14:24;35.30;56.80
947;DHT22;460;48.734;9.152;2023-09-12T14:16:51;35.50;54.40
947;DHT22;460;48.734;9.152;2023-09-12T14:19:18;34.80;55.50
947;DHT22;460;48.734;9.152;2023-09-12T14:21:44;33.80;57.10
947;DHT22;460;48.734;9.152;2023-09-12T14:24:11;33.20;57.90
947;DHT22;460;48.734;9.152;2023-09-12T14:26:39;32.50;58.80
947;DHT22;460;48.734;9.152;2023-09-12T14:29:06;31.90;59.60
947;DHT22;460;48.734;9.152;2023-09-12T14:31:33;31.30;59.90
947;DHT22;460;48.734;9.152;2023-09-12T14:34:02;30.80;61.30
947;DHT22;460;48.734;9.152;2023-09-12T14:36:30;30.20;64.30
947;DHT22;460;48.734;9.152;2023-09-12T14:38:57;29.80;65.40
947;DHT22;460;48.734;9.152;2023-09-12T14:41:24;29.70;65.90
947;DHT22;460;48.734;9.152;2023-09-12T14:43:52;29.60;65.60
947;DHT22;460;48.734;9.152;2023-09-12T14:46:19;29.30;68.10
947;DHT22;460;48.734;9.152;2023-09-12T14:48:46;29.00;68.00
947;DHT22;460;48.734;9.152;2023-09-12T14:51:12;28.80;67.20
947;DHT22;460;48.734;9.152;2023-09-12T14:53:39;28.70;67.50
947;DHT22;460;48.734;9.152;2023-09-12T14:56:09;28.70;72.50
947;DHT22;460;48.734;9.152;2023-09-12T14:58:36;28.50;70.70
947;DHT22;460;48.734;9.152;2023-09-12T15:01:05;28.50;70.50
947;DHT22;460;48.734;9.152;2023-09-12T15:03:31;28.50;71.40
947;DHT22;460;48.734;9.152;2023-09-12T15:06:04;28.50;70.60
947;DHT22;460;48.734;9.152;2023-09-12T15:08:31;28.40;72.10
947;DHT22;460;48.734;9.152;2023-09-12T15:10:58;28.40;74.30
947;DHT22;460;48.734;9.152;2023-09-12T15:13:25;28.30;72.60
947;DHT22;460;48.734;9.152;2023-09-12T15:15:51;28.30;72.20
947;DHT22;460;48.734;9.152;2023-09-12T15:18:22;28.40;72.40
947;DHT22;460;48.734;9.152;2023-09-12T15:20:51;28.60;73.30
947;DHT22;460;48.734;9.152;2023-09-12T15:23:21;28.70;72.30
947;DHT22;460;48.734;9.152;2023-09-12T15:25:48;28.70;71.80
947;DHT22;460;48.734;9.152;2023-09-12T15:28:15;28.70;72.10
947;DHT22;460;48.734;9.152;2023-09-12T15:30:42;28.50;73.70
947;DHT22;460;48.734;9.152;2023-09-12T15:33:08;28.40;70.80
947;DHT22;460;48.734;9.152;2023-09-12T15:35:37;28.30;73.70
947;DHT22;460;48.734;9.152;2023-09-12T15:38:04;28.10;74.30
947;DHT22;460;48.734;9.152;2023-09-12T15:40:31;28.10;72.20
947;DHT22;460;48.734;9.152;2023-09-12T15:42:58;27.90;75.00
947;DHT22;460;48.734;9.152;2023-09-12T15:45:25;27.70;75.80
947;DHT22;460;48.734;9.152;2023-09-12T15:47:55;27.50;75.10
947;DHT22;460;48.734;9.152;2023-09-12T15:50:25;27.40;74.30
947;DHT22;460;48.734;9.152;2023-09-12T15:52:53;27.40;76.70
947;DHT22;460;48.734;9.152;2023-09-12T15:55:19;27.30;77.90
947;DHT22;460;48.734;9.152;2023-09-12T15:57:46;27.20;76.40
947;DHT22;460;48.734;9.152;2023-09-12T16:00:14;27.10;78.10
947;DHT22;460;48.734;9.152;2023-09-12T16:02:42;27.00;79.60
947;DHT22;460;48.734;9.152;2023-09-12T16:05:09;27.00;80.00
947;DHT22;460;48.734;9.152;2023-09-12T16:07:36;27.00;79.90
947;DHT22;460;48.734;9.152;2023-09-12T16:10:05;26.90;79.00
947;DHT22;460;48.734;9.152;2023-09-12T16:12:33;26.80;81.20
947;DHT22;460;48.734;9.152;2023-09-12T16:15:25;26.70;78.90
947;DHT22;460;48.734;9.152;2023-09-12T16:18:06;26.80;79.50
947;DHT22;460;48.734;9.152;2023-09-12T16:20:33;26.90;80.00
947;DHT22;460;48.734;9.152;2023-09-12T16:23:00;26.90;80.00
947;DHT22;460;48.734;9.152;2023-09-12T16:25:56;26.80;79.00
947;DHT22;460;48.734;9.152;2023-09-12T16:28:23;26.80;79.90
947;DHT22;460;48.734;9.152;2023-09-12T16:30:51;26.80;79.30
947;DHT22;460;48.734;9.152;2023-09-12T16:33:34;26.80;80.70
947;DHT22;460;48.734;9.152;2023-09-12T16:36:01;26.80;80.10
947;DHT22;460;48.734;9.152;2023-09-12T16:38:28;26.70;79.80
947;DHT22;460;48.734;9.152;2023-09-12T16:40:59;26.60;82.10
947;DHT22;460;48.734;9.152;2023-09-12T16:43:26;26.50;82.40
947;DHT22;460;48.734;9.152;2023-09-12T16:46:12;26.50;82.50
947;DHT22;460;48.734;9.152;2023-09-12T16:48:41;26.50;81.80
947;DHT22;460;48.734;9.152;2023-09-12T16:51:09;26.40;80.80
947;DHT22;460;48.734;9.152;2023-09-12T16:53:36;26.40;81.00
947;DHT22;460;48.734;9.152;2023-09-12T16:56:04;26.60;77.60
947;DHT22;460;48.734;9.152;2023-09-12T16:58:31;26.60;76.30